Time;durP1;ratioP1;P1;durP2;ratioP2;P2;SDS_P1;SDS_P2;PMS_P1;PMS_P2;Temp;Humidity;BMP_temperature;BMP_pressure;BME280_temperature;BME280_humidity;BME280_pressure;Samples;Min_cycle;Max_cycle;Signal;HPM_P1;HPM_P2
2023/02/11 00:00:55;;;;;;;97.45;26.27;;;;;;;;;;5071670;28;20231;-68
2023/02/11 00:03:23;;;;;;;101.47;26.67;;;;;;;;;;5071568;28;20221;-68
2023/02/11 00:05:57;;;;;;;98.35;25.75;;;;;;;;;;5071727;28;20593;-68
2023/02/11 00:08:24;;;;;;;94.25;25.63;;;;;;;;;;5071614;28;20206;-68
2023/02/11 00:10:52;;;;;;;91.57;25.45;;;;;;;;;;5071612;28;20303;-68
2023/02/11 00:13:19;;;;;;;97.25;26.75;;;;;;;;;;5071773;28;20203;-68
2023/02/11 00:15:46;;;;;;;89.03;23.92;;;;;;;;;;5071737;28;20563;-69
2023/02/11 00:18:13;;;;;;;94.35;25.17;;;;;;;;;;5071478;28;20204;-68
2023/02/11 00:20:42;;;;;;;97.72;26.88;;;;;;;;;;5071424;28;20208;-69
2023/02/11 00:23:09;;;;;;;93.68;25.02;;;;;;;;;;5071505;28;20229;-69
2023/02/11 00:25:39;;;;;;;93.82;27.38;;;;;;;;;;5071737;28;20225;-69
2023/02/11 00:28:06;;;;;;;93.95;25.30;;;;;;;;;;5071417;28;20211;-68
2023/02/11 00:30:33;;;;;;;97.93;26.75;;;;;;;;;;5071063;28;20586;-68
2023/02/11 00:33:00;;;;;;;106.47;27.23;;;;;;;;;;5071650;28;20204;-68
2023/02/11 00:35:27;;;;;;;98.38;27.20;;;;;;;;;;5071703;28;20602;-68
2023/02/11 00:37:56;;;;;;;99.47;26.73;;;;;;;;;;5071479;28;20205;-68
2023/02/11 00:40:23;;;;;;;107.22;27.05;;;;;;;;;;5071068;28;20209;-68
2023/02/11 00:42:50;;;;;;;108.18;27.17;;;;;;;;;;5071327;28;20604;-69
2023/02/11 00:45:19;;;;;;;97.68;27.90;;;;;;;;;;5071184;28;20229;-69
2023/02/11 00:47:46;;;;;;;98.35;28.05;;;;;;;;;;5071571;28;20213;-69
2023/02/11 00:50:14;;;;;;;97.18;26.98;;;;;;;;;;5071174;28;20201;-68
2023/02/11 00:52:41;;;;;;;101.60;26.50;;;;;;;;;;5071341;28;20201;-68
2023/02/11 00:55:10;;;;;;;96.60;26.35;;;;;;;;;;5071326;28;20229;-69
2023/02/11 00:57:37;;;;;;;102.47;26.75;;;;;;;;;;5074076;28;20205;-68
2023/02/11 01:00:04;;;;;;;98.18;24.77;;;;;;;;;;5074876;28;20205;-68
2023/02/11 01:02:32;;;;;;;101.45;26.95;;;;;;;;;;5075212;28;20231;-69
2023/02/11 01:04:59;;;;;;;97.75;27.63;;;;;;;;;;5075098;28;20320;-68
2023/02/11 01:07:26;;;;;;;100.13;25.10;;;;;;;;;;5074878;28;20212;-68
2023/02/11 01:09:54;;;;;;;95.07;26.70;;;;;;;;;;5074506;28;20205;-69
2023/02/11 01:12:23;;;;;;;107.10;29.83;;;;;;;;;;5074793;28;20243;-68
2023/02/11 01:14:50;;;;;;;99.72;26.92;;;;;;;;;;5074815;28;20229;-68
2023/02/11 01:17:17;;;;;;;99.57;26.42;;;;;;;;;;5075069;28;20212;-69
2023/02/11 01:19:44;;;;;;;90.68;24.95;;;;;;;;;;5074451;28;20212;-68
2023/02/11 01:22:11;;;;;;;100.05;28.70;;;;;;;;;;5074670;28;20205;-68
2023/02/11 01:24:39;;;;;;;101.15;26.13;;;;;;;;;;5074429;28;20661;-69
2023/02/11 01:27:06;;;;;;;97.47;26.85;;;;;;;;;;5074632;28;20208;-69
2023/02/11 01:29:34;;;;;;;94.22;25.23;;;;;;;;;;5074312;28;20201;-68
2023/02/11 01:32:01;;;;;;;92.97;26.33;;;;;;;;;;5075033;28;20209;-69
2023/02/11 01:34:29;;;;;;;98.32;26.05;;;;;;;;;;5074444;28;20689;-68
2023/02/11 01:36:58;;;;;;;93.10;25.15;;;;;;;;;;5074439;28;20208;-69
2023/02/11 01:39:25;;;;;;;95.38;25.10;;;;;;;;;;5073941;28;20255;-69
2023/02/11 01:41:52;;;;;;;103.25;27.52;;;;;;;;;;5074548;28;20586;-68
2023/02/11 01:44:24;;;;;;;90.75;25.88;;;;;;;;;;5074190;28;20240;-68
2023/02/11 01:46:52;;;;;;;96.80;26.60;;;;;;;;;;5074375;28;20205;-68
2023/02/11 01:49:21;;;;;;;95.65;25.38;;;;;;;;;;5073820;28;20215;-69
2023/02/11 01:51:49;;;;;;;96.22;25.38;;;;;;;;;;5074084;28;20209;-69
2023/02/11 01:59:49;;;;;;;94.90;24.92;;;;;;;;;;5073871;28;20303;-68
2023/02/11 02:02:20;;;;;;;98.65;26.02;;;;;;;;;;5073859;28;20562;-69
2023/02/11 02:04:49;;;;;;;96.32;26.08;;;;;;;;;;5074282;28;20225;-68
2023/02/11 02:07:18;;;;;;;98.57;25.73;;;;;;;;;;5074027;28;20292;-69
2023/02/11 02:09:50;;;;;;;97.82;26.52;;;;;;;;;;5073443;28;20205;-69
2023/02/11 02:12:17;;;;;;;101.68;29.48;;;;;;;;;;5073846;28;20209;-69
2023/02/11 02:14:44;;;;;;;97.13;26.45;;;;;;;;;;5073473;28;20717;-69
2023/02/11 02:17:13;;;;;;;93.88;25.17;;;;;;;;;;5073887;28;20210;-69
2023/02/11 02:19:55;;;;;;;90.88;24.60;;;;;;;;;;5073319;28;20693;-69
2023/02/11 02:22:36;;;;;;;94.20;25.00;;;;;;;;;;5071563;28;20300;-69
2023/02/11 02:25:25;;;;;;;101.78;25.85;;;;;;;;;;5073228;28;20244;-69
2023/02/11 02:27:56;;;;;;;92.88;23.77;;;;;;;;;;5073707;28;20595;-68
2023/02/11 02:30:40;;;;;;;91.28;24.88;;;;;;;;;;5073304;28;20588;-68
2023/02/11 02:33:31;;;;;;;102.25;28.75;;;;;;;;;;5073447;28;20552;-68
2023/02/11 02:36:06;;;;;;;97.18;26.27;;;;;;;;;;5056265;28;20201;-69
2023/02/11 02:38:35;;;;;;;98.03;26.70;;;;;;;;;;5073207;28;20254;-69
2023/02/11 02:41:04;;;;;;;101.53;27.55;;;;;;;;;;5073002;28;20205;-68
2023/02/11 02:43:32;;;;;;;96.45;26.85;;;;;;;;;;5072975;28;20225;-69
2023/02/11 02:46:10;;;;;;;97.93;26.17;;;;;;;;;;5073221;28;20209;-69
2023/02/11 02:48:37;;;;;;;93.35;26.50;;;;;;;;;;5072765;28;20204;-68
2023/02/11 02:51:12;;;;;;;100.13;25.23;;;;;;;;;;5073017;28;20201;-69
2023/02/11 02:53:45;;;;;;;96.10;25.58;;;;;;;;;;5073077;28;20314;-68
2023/02/11 02:56:14;;;;;;;95.97;27.88;;;;;;;;;;5073061;28;20201;-68
2023/02/11 02:58:52;;;;;;;99.63;27.20;;;;;;;;;;5072807;28;20208;-68
2023/02/11 03:01:25;;;;;;;98.80;26.85;;;;;;;;;;5072861;28;20205;-68
2023/02/11 03:03:58;;;;;;;93.60;25.30;;;;;;;;;;5072514;28;20233;-69
2023/02/11 03:06:31;;;;;;;99.47;27.25;;;;;;;;;;5072924;28;20209;-69
2023/02/11 03:09:01;;;;;;;99.20;26.50;;;;;;;;;;5072725;28;20216;-69
2023/02/11 03:11:29;;;;;;;88.50;24.20;;;;;;;;;;5072392;28;20212;-68
2023/02/11 03:13:57;;;;;;;91.72;25.02;;;;;;;;;;5072514;28;20231;-68
2023/02/11 03:16:26;;;;;;;94.78;26.60;;;;;;;;;;5072513;28;20586;-68
2023/02/11 03:18:58;;;;;;;97.85;24.15;;;;;;;;;;5071936;28;20495;-68
2023/02/11 03:21:25;;;;;;;96.47;25.92;;;;;;;;;;5072597;28;20680;-69
2023/02/11 03:23:55;;;;;;;97.40;27.02;;;;;;;;;;5072289;28;20233;-68
2023/02/11 03:26:25;;;;;;;93.63;24.92;;;;;;;;;;5072260;28;20208;-68
2023/02/11 03:28:55;;;;;;;95.68;25.60;;;;;;;;;;5071817;28;20212;-68
2023/02/11 03:31:27;;;;;;;95.45;24.33;;;;;;;;;;5072586;28;20580;-68
2023/02/11 03:34:01;;;;;;;104.78;29.15;;;;;;;;;;5072269;28;20222;-68
2023/02/11 03:36:33;;;;;;;95.03;25.20;;;;;;;;;;5072202;28;20299;-69
2023/02/11 03:39:03;;;;;;;105.65;27.80;;;;;;;;;;5071868;28;20258;-68
2023/02/11 03:41:30;;;;;;;94.93;25.95;;;;;;;;;;5072002;28;20211;-69
2023/02/11 03:43:59;;;;;;;90.10;24.17;;;;;;;;;;5072128;28;20240;-68
2023/02/11 03:46:29;;;;;;;105.18;28.52;;;;;;;;;;5072348;28;20205;-68
2023/02/11 03:48:59;;;;;;;95.30;24.85;;;;;;;;;;5071843;28;20585;-68
2023/02/11 03:51:27;;;;;;;95.53;26.73;;;;;;;;;;5072177;28;20228;-68
2023/02/11 03:53:57;;;;;;;95.55;26.20;;;;;;;;;;5071749;28;20221;-68
2023/02/11 03:56:27;;;;;;;93.65;25.90;;;;;;;;;;5071813;28;20685;-68
2023/02/11 03:58:54;;;;;;;86.53;22.98;;;;;;;;;;5071985;28;20235;-68
2023/02/11 04:01:21;;;;;;;95.30;25.70;;;;;;;;;;5071979;28;20201;-68
2023/02/11 04:03:48;;;;;;;92.75;25.33;;;;;;;;;;5071726;28;20229;-68
2023/02/11 04:06:15;;;;;;;102.82;25.23;;;;;;;;;;5071764;28;20488;-68
2023/02/11 04:08:43;;;;;;;93.15;24.13;;;;;;;;;;5071707;28;20207;-69
2023/02/11 04:11:10;;;;;;;95.93;24.92;;;;;;;;;;5071694;28;20208;-68
2023/02/11 04:13:38;;;;;;;95.63;25.50;;;;;;;;;;5071615;28;20212;-68
2023/02/11 04:16:05;;;;;;;94.20;25.50;;;;;;;;;;5071873;28;20212;-68
2023/02/11 04:18:33;;;;;;;99.25;27.67;;;;;;;;;;5071485;28;20209;-69
2023/02/11 04:21:00;;;;;;;95.47;25.55;;;;;;;;;;5071785;28;20209;-68
2023/02/11 04:23:27;;;;;;;97.15;26.40;;;;;;;;;;5071325;28;20225;-69
2023/02/11 04:25:54;;;;;;;96.70;26.33;;;;;;;;;;5071796;28;20597;-70
2023/02/11 04:28:21;;;;;;;103.43;27.58;;;;;;;;;;5071584;28;20205;-69
2023/02/11 04:30:51;;;;;;;92.50;25.88;;;;;;;;;;5071810;28;20227;-69
2023/02/11 04:33:18;;;;;;;93.03;24.67;;;;;;;;;;5075569;28;20270;-69
2023/02/11 04:35:45;;;;;;;91.72;25.67;;;;;;;;;;5075444;28;20225;-68
2023/02/11 04:38:12;;;;;;;94.68;25.98;;;;;;;;;;5075642;28;20205;-68
2023/02/11 04:40:39;;;;;;;96.53;27.55;;;;;;;;;;5075329;28;20211;-69
2023/02/11 04:43:07;;;;;;;94.50;24.50;;;;;;;;;;5075482;28;20209;-68
2023/02/11 04:45:35;;;;;;;91.88;26.35;;;;;;;;;;5075344;28;20225;-68
2023/02/11 04:48:03;;;;;;;96.07;26.23;;;;;;;;;;5075216;28;20688;-68
2023/02/11 04:50:30;;;;;;;95.60;25.77;;;;;;;;;;5075046;28;20206;-69
2023/02/11 04:52:58;;;;;;;92.68;25.20;;;;;;;;;;5075347;28;20208;-69
2023/02/11 04:55:25;;;;;;;92.00;24.55;;;;;;;;;;5075031;28;20564;-69
2023/02/11 04:57:52;;;;;;;99.80;24.40;;;;;;;;;;5075066;28;20580;-68
2023/02/11 05:00:19;;;;;;;93.55;24.63;;;;;;;;;;5074820;28;20205;-69
2023/02/11 05:02:46;;;;;;;93.97;25.08;;;;;;;;;;5074956;28;20578;-68
2023/02/11 05:05:15;;;;;;;95.22;24.02;;;;;;;;;;5075167;28;20244;-68
2023/02/11 05:07:42;;;;;;;96.32;25.42;;;;;;;;;;5075242;28;20205;-69
2023/02/11 05:10:09;;;;;;;95.78;24.80;;;;;;;;;;5074545;28;20696;-69
2023/02/11 05:12:36;;;;;;;96.70;25.40;;;;;;;;;;5075129;28;20201;-69
2023/02/11 05:15:03;;;;;;;100.68;26.42;;;;;;;;;;5074600;28;20225;-69
2023/02/11 05:17:30;;;;;;;91.70;25.48;;;;;;;;;;5075277;28;20205;-69
2023/02/11 05:19:57;;;;;;;93.85;26.13;;;;;;;;;;5074444;28;20202;-69
2023/02/11 05:22:26;;;;;;;99.47;23.98;;;;;;;;;;5074868;28;20209;-69
2023/02/11 05:24:53;;;;;;;91.75;24.80;;;;;;;;;;5073446;28;20229;-69
2023/02/11 05:27:20;;;;;;;92.60;26.75;;;;;;;;;;5073544;28;20231;-69
2023/02/11 05:29:47;;;;;;;93.63;25.20;;;;;;;;;;5072962;28;20208;-68
2023/02/11 05:32:14;;;;;;;94.30;23.67;;;;;;;;;;5073310;28;20209;-69
2023/02/11 05:34:41;;;;;;;93.95;25.80;;;;;;;;;;5073600;28;20248;-69
2023/02/11 05:37:08;;;;;;;93.93;25.55;;;;;;;;;;5073434;28;20207;-69
2023/02/11 05:39:37;;;;;;;93.63;24.48;;;;;;;;;;5072818;28;20209;-69
2023/02/11 05:42:04;;;;;;;95.70;25.13;;;;;;;;;;5072711;28;20213;-69
2023/02/11 05:44:31;;;;;;;91.85;23.60;;;;;;;;;;5073289;28;20243;-69
2023/02/11 05:46:58;;;;;;;94.63;26.38;;;;;;;;;;5073141;28;20216;-68
2023/02/11 05:49:25;;;;;;;93.65;27.05;;;;;;;;;;5072957;28;20206;-69
2023/02/11 05:51:52;;;;;;;98.38;27.73;;;;;;;;;;5073144;28;20213;-69
2023/02/11 05:54:20;;;;;;;98.13;26.15;;;;;;;;;;5072997;28;20227;-69
2023/02/11 05:56:48;;;;;;;89.93;24.50;;;;;;;;;;5072895;28;20204;-67
2023/02/11 05:59:15;;;;;;;91.72;24.45;;;;;;;;;;5072771;28;20205;-67
2023/02/11 06:01:43;;;;;;;99.97;27.52;;;;;;;;;;5072691;28;20209;-67
2023/02/11 06:04:10;;;;;;;90.80;24.65;;;;;;;;;;5072744;28;20232;-66
2023/02/11 06:06:37;;;;;;;97.22;27.88;;;;;;;;;;5072895;28;20213;-68
2023/02/11 06:09:04;;;;;;;90.95;24.50;;;;;;;;;;5072310;28;20212;-68
2023/02/11 06:11:31;;;;;;;93.40;25.90;;;;;;;;;;5072865;28;20206;-69
2023/02/11 06:13:59;;;;;;;97.03;26.48;;;;;;;;;;5072745;28;20318;-69
2023/02/11 06:16:27;;;;;;;92.97;25.50;;;;;;;;;;5072749;28;20704;-68
2023/02/11 06:18:54;;;;;;;88.93;23.77;;;;;;;;;;5072349;28;20205;-69
2023/02/11 06:21:21;;;;;;;95.97;27.05;;;;;;;;;;5072672;28;20207;-69
2023/02/11 06:23:48;;;;;;;93.00;25.40;;;;;;;;;;5034444;28;1090112;-69
2023/02/11 06:26:17;;;;;;;91.85;24.30;;;;;;;;;;5073758;28;20202;-68
2023/02/11 06:28:44;;;;;;;92.32;26.00;;;;;;;;;;5073279;28;20360;-69
2023/02/11 06:31:13;;;;;;;98.35;27.25;;;;;;;;;;5073588;28;20213;-69
2023/02/11 06:33:40;;;;;;;90.75;24.70;;;;;;;;;;5073753;28;20205;-68
2023/02/11 06:36:13;;;;;;;92.78;24.67;;;;;;;;;;5073374;28;20586;-68
2023/02/11 06:38:40;;;;;;;91.07;24.52;;;;;;;;;;5073090;28;20192;-69
2023/02/11 06:41:07;;;;;;;98.05;28.13;;;;;;;;;;5073314;28;20209;-69
2023/02/11 06:43:34;;;;;;;92.82;24.52;;;;;;;;;;5073218;28;20209;-69
2023/02/11 06:46:01;;;;;;;95.20;29.42;;;;;;;;;;5072978;28;20715;-69
2023/02/11 06:48:29;;;;;;;89.90;26.55;;;;;;;;;;5073172;28;20224;-69
2023/02/11 06:50:56;;;;;;;95.07;25.58;;;;;;;;;;5073366;28;20662;-69
2023/02/11 06:53:24;;;;;;;94.13;25.50;;;;;;;;;;5072588;28;20201;-70
2023/02/11 06:55:51;;;;;;;98.93;26.27;;;;;;;;;;5072918;28;20621;-66
2023/02/11 06:58:18;;;;;;;90.22;25.33;;;;;;;;;;5072902;28;20209;-67
2023/02/11 07:00:45;;;;;;;87.90;23.90;;;;;;;;;;5072530;28;20210;-67
2023/02/11 07:03:12;;;;;;;90.82;25.73;;;;;;;;;;5072783;28;20256;-68
2023/02/11 07:05:42;;;;;;;93.25;25.38;;;;;;;;;;5072549;28;20245;-68
2023/02/11 07:08:09;;;;;;;93.32;26.70;;;;;;;;;;5073975;28;20210;-68
2023/02/11 07:10:37;;;;;;;88.28;24.17;;;;;;;;;;5072349;28;20673;-68
2023/02/11 07:13:04;;;;;;;94.00;26.10;;;;;;;;;;5072741;28;20207;-68
2023/02/11 07:15:31;;;;;;;92.97;27.20;;;;;;;;;;5072519;28;20232;-68
2023/02/11 07:17:58;;;;;;;92.68;25.25;;;;;;;;;;5072384;28;20202;-68
2023/02/11 07:20:25;;;;;;;94.18;25.85;;;;;;;;;;5072322;28;20203;-68
2023/02/11 07:22:54;;;;;;;98.40;25.80;;;;;;;;;;5072787;28;20206;-68
2023/02/11 07:25:21;;;;;;;92.97;25.08;;;;;;;;;;5072287;28;20229;-68
2023/02/11 07:27:48;;;;;;;95.13;26.20;;;;;;;;;;5072380;28;20205;-68
2023/02/11 07:30:16;;;;;;;95.53;28.70;;;;;;;;;;5071977;28;20300;-67
2023/02/11 07:32:43;;;;;;;93.03;25.98;;;;;;;;;;5072133;28;20586;-68
2023/02/11 07:35:10;;;;;;;96.35;26.05;;;;;;;;;;5072282;28;20221;-67
2023/02/11 07:37:37;;;;;;;91.20;25.58;;;;;;;;;;5071986;28;20218;-68
2023/02/11 07:40:06;;;;;;;90.00;26.13;;;;;;;;;;5072107;28;20227;-68
2023/02/11 07:42:35;;;;;;;99.57;27.45;;;;;;;;;;5072202;28;20209;-67
2023/02/11 07:45:02;;;;;;;92.38;25.42;;;;;;;;;;5071786;28;20232;-67
2023/02/11 07:47:29;;;;;;;95.30;27.27;;;;;;;;;;5072339;28;20569;-68
2023/02/11 07:49:57;;;;;;;92.13;25.35;;;;;;;;;;5072006;28;20212;-68
2023/02/11 07:52:24;;;;;;;94.18;26.08;;;;;;;;;;5071867;28;20210;-68
2023/02/11 07:54:51;;;;;;;96.22;27.35;;;;;;;;;;5072058;28;20596;-68
2023/02/11 07:57:19;;;;;;;92.95;28.15;;;;;;;;;;5072011;28;20206;-68
2023/02/11 07:59:46;;;;;;;95.43;26.08;;;;;;;;;;5071432;28;20212;-68
2023/02/11 08:02:13;;;;;;;98.97;28.98;;;;;;;;;;5071977;28;20204;-68
2023/02/11 08:04:41;;;;;;;93.13;25.35;;;;;;;;;;5071659;28;20234;-68
2023/02/11 08:07:08;;;;;;;96.13;27.63;;;;;;;;;;5071945;28;20202;-68
2023/02/11 08:09:35;;;;;;;95.70;27.45;;;;;;;;;;5071421;28;20206;-68
2023/02/11 08:12:02;;;;;;;97.82;27.30;;;;;;;;;;5071672;28;20216;-68
2023/02/11 08:14:31;;;;;;;95.95;29.83;;;;;;;;;;5071497;28;20224;-68
2023/02/11 08:16:58;;;;;;;96.13;27.13;;;;;;;;;;5071677;28;20854;-68
2023/02/11 08:19:26;;;;;;;89.85;24.98;;;;;;;;;;5071491;28;20208;-68
2023/02/11 08:21:55;;;;;;;94.15;26.00;;;;;;;;;;5071493;28;20668;-68
2023/02/11 08:24:22;;;;;;;90.97;26.33;;;;;;;;;;5071389;28;20258;-69
2023/02/11 08:26:50;;;;;;;92.50;26.50;;;;;;;;;;5071479;28;20208;-68
2023/02/11 08:29:17;;;;;;;94.45;26.60;;;;;;;;;;5071477;28;20617;-68
2023/02/11 08:31:47;;;;;;;91.25;26.13;;;;;;;;;;5071663;28;20205;-68
2023/02/11 08:34:17;;;;;;;91.47;27.33;;;;;;;;;;5071501;28;20228;-69
2023/02/11 08:36:44;;;;;;;94.38;28.60;;;;;;;;;;5071521;28;20251;-68
2023/02/11 08:39:13;;;;;;;93.53;27.15;;;;;;;;;;5071022;28;20215;-69
2023/02/11 08:41:41;;;;;;;95.38;27.50;;;;;;;;;;5071378;28;20205;-68
2023/02/11 08:44:08;;;;;;;86.85;24.85;;;;;;;;;;5071453;28;20232;-68
2023/02/11 08:46:35;;;;;;;90.85;25.65;;;;;;;;;;5071550;28;20235;-69
2023/02/11 08:49:03;;;;;;;97.68;27.67;;;;;;;;;;5071038;28;20211;-69
2023/02/11 08:51:31;;;;;;;92.03;24.90;;;;;;;;;;5071407;28;20213;-69
2023/02/11 08:53:58;;;;;;;89.43;25.95;;;;;;;;;;5071026;28;20225;-68
2023/02/11 08:56:26;;;;;;;92.65;25.30;;;;;;;;;;5071443;28;20212;-69
2023/02/11 08:58:53;;;;;;;93.97;26.40;;;;;;;;;;5070996;28;20205;-68
2023/02/11 09:01:21;;;;;;;92.93;26.63;;;;;;;;;;5071217;28;20211;-68
2023/02/11 09:03:48;;;;;;;95.40;26.95;;;;;;;;;;5071125;28;20704;-68
2023/02/11 09:06:17;;;;;;;92.78;27.83;;;;;;;;;;5070729;28;20225;-68
2023/02/11 09:08:45;;;;;;;90.35;25.02;;;;;;;;;;5071039;28;20262;-68
2023/02/11 09:11:13;;;;;;;87.03;25.20;;;;;;;;;;5071006;28;20234;-69
2023/02/11 09:13:41;;;;;;;89.72;24.77;;;;;;;;;;5071213;28;20586;-68
2023/02/11 09:16:09;;;;;;;91.00;23.48;;;;;;;;;;5071175;28;20207;-68
2023/02/11 09:18:37;;;;;;;89.80;23.30;;;;;;;;;;5073552;28;20682;-68
2023/02/11 09:21:04;;;;;;;87.00;23.83;;;;;;;;;;5074553;28;20215;-68
2023/02/11 09:23:33;;;;;;;86.63;23.33;;;;;;;;;;5074386;28;20702;-69
2023/02/11 09:26:00;;;;;;;93.70;23.77;;;;;;;;;;5074683;28;20233;-68
2023/02/11 09:28:28;;;;;;;86.75;23.80;;;;;;;;;;5074500;28;20555;-68
2023/02/11 09:30:55;;;;;;;85.03;22.00;;;;;;;;;;5074444;28;20209;-68
2023/02/11 09:33:22;;;;;;;85.03;21.25;;;;;;;;;;5074206;28;20211;-68
2023/02/11 09:35:49;;;;;;;81.05;19.60;;;;;;;;;;5074616;28;20197;-68
2023/02/11 09:38:16;;;;;;;83.45;21.88;;;;;;;;;;5074340;28;20209;-68
2023/02/11 09:40:45;;;;;;;83.60;20.17;;;;;;;;;;5073920;28;20201;-68
2023/02/11 09:43:16;;;;;;;88.32;24.85;;;;;;;;;;5074347;28;20205;-68
2023/02/11 09:45:44;;;;;;;82.72;20.00;;;;;;;;;;5074028;28;20708;-68
2023/02/11 09:48:14;;;;;;;82.50;20.40;;;;;;;;;;5074209;28;20497;-68
2023/02/11 09:50:43;;;;;;;81.32;19.80;;;;;;;;;;5073996;28;20201;-68
2023/02/11 09:53:12;;;;;;;82.30;19.77;;;;;;;;;;5074101;28;20674;-68
2023/02/11 09:55:42;;;;;;;82.47;20.83;;;;;;;;;;5073969;28;20517;-68
2023/02/11 09:58:13;;;;;;;82.38;18.80;;;;;;;;;;5074497;28;20475;-68
2023/02/11 10:00:43;;;;;;;83.87;20.27;;;;;;;;;;5073573;28;20209;-68
2023/02/11 10:03:27;;;;;;;86.43;21.47;;;;;;;;;;5073776;28;20967;-68
2023/02/11 10:06:03;;;;;;;83.33;19.20;;;;;;;;;;5073885;28;20482;-66
2023/02/11 10:08:34;;;;;;;79.10;17.30;;;;;;;;;;5073768;28;20451;-67
2023/02/11 10:11:04;;;;;;;77.77;18.60;;;;;;;;;;5073837;28;20451;-67
2023/02/11 10:13:41;;;;;;;75.30;16.70;;;;;;;;;;5073699;28;20494;-67
2023/02/11 10:16:14;;;;;;;77.83;19.23;;;;;;;;;;5073508;28;20443;-68
2023/02/11 10:18:47;;;;;;;78.03;18.43;;;;;;;;;;5073402;28;20451;-68
2023/02/11 10:21:20;;;;;;;75.57;19.40;;;;;;;;;;5073904;28;20801;-68
2023/02/11 10:23:50;;;;;;;76.47;19.33;;;;;;;;;;5073312;28;20540;-68
2023/02/11 10:26:18;;;;;;;80.87;22.77;;;;;;;;;;5073626;28;20586;-68
2023/02/11 10:28:48;;;;;;;78.17;20.60;;;;;;;;;;5072066;28;20547;-68
2023/02/11 10:31:16;;;;;;;74.47;19.20;;;;;;;;;;5073786;28;20463;-68
2023/02/11 10:33:45;;;;;;;83.37;21.00;;;;;;;;;;5073002;28;20471;-68
2023/02/11 10:36:13;;;;;;;73.60;16.47;;;;;;;;;;5073130;28;20447;-67
2023/02/11 10:38:40;;;;;;;68.70;12.63;;;;;;;;;;5072755;28;20939;-67
2023/02/11 10:41:10;;;;;;;69.60;12.73;;;;;;;;;;5073208;28;20448;-67
2023/02/11 10:43:37;;;;;;;69.60;14.10;;;;;;;;;;5073092;28;20843;-67
2023/02/11 10:46:06;;;;;;;66.83;12.40;;;;;;;;;;5072907;28;20486;-68
2023/02/11 10:48:38;;;;;;;67.37;11.80;;;;;;;;;;5072585;28;20447;-67
2023/02/11 10:51:07;;;;;;;69.83;12.80;;;;;;;;;;5073118;28;20447;-68
2023/02/11 10:53:35;;;;;;;69.53;13.30;;;;;;;;;;5072851;28;20443;-68
2023/02/11 10:56:03;;;;;;;69.33;12.80;;;;;;;;;;5072798;28;20453;-68
2023/02/11 10:58:32;;;;;;;66.97;12.00;;;;;;;;;;5072605;28;20504;-68
2023/02/11 11:01:00;;;;;;;66.10;10.67;;;;;;;;;;5072583;28;20487;-68
2023/02/11 11:03:32;;;;;;;65.77;10.47;;;;;;;;;;5072744;28;20462;-67
2023/02/11 11:05:59;;;;;;;68.00;12.23;;;;;;;;;;5072737;28;20487;-68
2023/02/11 11:08:38;;;;;;;66.53;11.53;;;;;;;;;;5072635;28;20955;-68
2023/02/11 11:11:07;;;;;;;71.20;11.30;;;;;;;;;;5072419;28;20976;-68
2023/02/11 11:13:35;;;;;;;68.20;12.17;;;;;;;;;;5072552;28;20962;-68
2023/02/11 11:16:32;;;;;;;67.60;11.80;;;;;;;;;;5072585;28;20447;-68
2023/02/11 11:19:20;;;;;;;67.10;11.70;;;;;;;;;;5010106;28;21018;-68
2023/02/11 11:21:48;;;;;;;64.37;11.13;;;;;;;;;;5066481;28;20459;-68
2023/02/11 11:24:17;;;;;;;67.50;11.87;;;;;;;;;;5072156;28;20486;-68
2023/02/11 11:26:46;;;;;;;65.93;11.20;;;;;;;;;;5072349;28;20804;-68
2023/02/11 11:29:14;;;;;;;66.67;11.33;;;;;;;;;;5071938;28;20509;-68
2023/02/11 11:31:46;;;;;;;69.10;12.00;;;;;;;;;;5072016;28;20456;-68
2023/02/11 11:34:21;;;;;;;66.97;11.40;;;;;;;;;;5072402;28;20475;-68
2023/02/11 11:36:48;;;;;;;68.17;11.03;;;;;;;;;;5072128;28;20821;-68
2023/02/11 11:39:19;;;;;;;65.90;11.20;;;;;;;;;;5071817;28;20443;-68
2023/02/11 11:41:56;;;;;;;65.10;10.53;;;;;;;;;;5071779;28;20496;-68
2023/02/11 11:44:28;;;;;;;67.67;11.17;;;;;;;;;;5071982;28;20473;-67
2023/02/11 11:47:07;;;;;;;68.90;10.67;;;;;;;;;;5071805;28;20471;-67
2023/02/11 11:49:39;;;;;;;65.30;9.80;;;;;;;;;;5071535;28;20454;-69
2023/02/11 11:52:12;;;;;;;68.77;8.90;;;;;;;;;;5072139;28;20818;-68
2023/02/11 11:54:39;;;;;;;66.20;10.37;;;;;;;;;;5071897;28;20475;-69
2023/02/11 11:57:12;;;;;;;66.87;10.23;;;;;;;;;;5071701;28;20446;-69
2023/02/11 11:59:39;;;;;;;64.37;8.77;;;;;;;;;;5071470;28;20447;-69
2023/02/11 12:02:18;;;;;;;63.67;9.27;;;;;;;;;;5071933;28;20447;-69
2023/02/11 12:04:57;;;;;;;64.57;9.10;;;;;;;;;;5071873;28;20467;-69
2023/02/11 12:07:33;;;;;;;63.90;8.93;;;;;;;;;;5071584;28;20487;-69
2023/02/11 12:10:18;;;;;;;65.40;9.87;;;;;;;;;;5071596;28;20450;-69
2023/02/11 12:12:49;;;;;;;64.20;9.33;;;;;;;;;;5071721;28;20455;-69
2023/02/11 12:15:25;;;;;;;65.87;10.57;;;;;;;;;;5071809;28;20463;-70
2023/02/11 12:18:00;;;;;;;64.93;8.80;;;;;;;;;;5071693;28;20458;-69
2023/02/11 12:20:32;;;;;;;75.47;10.23;;;;;;;;;;5071535;28;20443;-69
2023/02/11 12:23:05;;;;;;;64.50;9.70;;;;;;;;;;5071494;28;20443;-70
2023/02/11 12:25:35;;;;;;;64.57;9.07;;;;;;;;;;5071849;28;20463;-69
2023/02/11 12:28:08;;;;;;;64.47;10.37;;;;;;;;;;5071359;28;20450;-69
2023/02/11 12:30:42;;;;;;;67.10;9.77;;;;;;;;;;5071180;28;20458;-69
2023/02/11 12:33:13;;;;;;;66.30;10.63;;;;;;;;;;5071831;28;20453;-69
2023/02/11 12:35:47;;;;;;;64.70;10.17;;;;;;;;;;5071496;28;21005;-70
2023/02/11 12:38:22;;;;;;;69.87;11.43;;;;;;;;;;5071460;28;20834;-69
2023/02/11 12:40:53;;;;;;;68.07;11.00;;;;;;;;;;5071235;28;20808;-69
2023/02/11 12:43:21;;;;;;;68.47;11.10;;;;;;;;;;5071817;28;20447;-69
2023/02/11 12:46:01;;;;;;;70.50;11.67;;;;;;;;;;5071388;28;20860;-69
2023/02/11 12:48:35;;;;;;;67.93;11.53;;;;;;;;;;5071313;28;20449;-69
2023/02/11 12:51:08;;;;;;;72.47;11.97;;;;;;;;;;5071380;28;20457;-69
2023/02/11 12:53:42;;;;;;;67.77;11.20;;;;;;;;;;5074317;28;20939;-69
2023/02/11 12:56:14;;;;;;;67.60;11.50;;;;;;;;;;5075392;28;20944;-69
2023/02/11 12:58:41;;;;;;;69.97;12.93;;;;;;;;;;5074696;28;20449;-69
2023/02/11 13:01:10;;;;;;;72.77;14.27;;;;;;;;;;5074901;28;20451;-68
2023/02/11 13:03:39;;;;;;;71.70;13.37;;;;;;;;;;5074973;28;20458;-69
2023/02/11 13:06:10;;;;;;;74.67;15.07;;;;;;;;;;5074741;28;20481;-69
2023/02/11 13:08:39;;;;;;;73.47;14.33;;;;;;;;;;5074888;28;20447;-69
2023/02/11 13:11:10;;;;;;;73.83;15.90;;;;;;;;;;5074859;28;20458;-69
2023/02/11 13:13:39;;;;;;;74.47;14.93;;;;;;;;;;5074990;28;20456;-69
2023/02/11 13:16:08;;;;;;;72.03;14.93;;;;;;;;;;5075368;28;20447;-69
2023/02/11 13:18:41;;;;;;;70.30;14.27;;;;;;;;;;5074277;28;20627;-69
2023/02/11 13:21:26;;;;;;;72.43;15.07;;;;;;;;;;5075218;28;20455;-69
2023/02/11 13:23:58;;;;;;;69.80;14.83;;;;;;;;;;5074459;28;20471;-69
2023/02/11 13:26:28;;;;;;;70.03;13.40;;;;;;;;;;5074557;28;20490;-69
2023/02/11 13:28:57;;;;;;;74.40;15.17;;;;;;;;;;5074100;28;20443;-69
2023/02/11 13:31:26;;;;;;;73.20;14.77;;;;;;;;;;5074742;28;20823;-69
2023/02/11 13:33:53;;;;;;;69.80;14.63;;;;;;;;;;5074490;28;20510;-69
2023/02/11 13:36:21;;;;;;;73.67;15.23;;;;;;;;;;5074724;28;20443;-69
2023/02/11 13:38:58;;;;;;;73.63;15.77;;;;;;;;;;5074185;28;20443;-70
2023/02/11 13:41:28;;;;;;;77.67;19.10;;;;;;;;;;5074319;28;20443;-70
2023/02/11 13:43:59;;;;;;;76.07;15.50;;;;;;;;;;5074224;28;20636;-67
2023/02/11 13:46:28;;;;;;;74.40;17.03;;;;;;;;;;5074320;28;20494;-68
2023/02/11 13:48:55;;;;;;;73.57;19.30;;;;;;;;;;5073927;28;20457;-69
2023/02/11 13:51:35;;;;;;;73.50;16.87;;;;;;;;;;5074502;28;20455;-68
2023/02/11 13:54:04;;;;;;;74.50;19.40;;;;;;;;;;5074032;28;20475;-68
2023/02/11 13:56:32;;;;;;;72.10;15.90;;;;;;;;;;5074192;28;20447;-68
2023/02/11 13:59:00;;;;;;;70.33;15.30;;;;;;;;;;5073704;28;20448;-68
2023/02/11 14:01:41;;;;;;;71.83;15.50;;;;;;;;;;5074250;28;20454;-68
2023/02/11 14:10:32;;;;;;;71.37;16.10;;;;;;;;;;5073578;28;20406;-69
2023/02/11 14:13:06;;;;;;;70.80;14.07;;;;;;;;;;5073727;28;20824;-69
2023/02/11 14:15:39;;;;;;;70.80;14.27;;;;;;;;;;5073641;28;20983;-68
2023/02/11 14:18:21;;;;;;;69.50;15.23;;;;;;;;;;5073819;28;20451;-69
2023/02/11 14:20:49;;;;;;;67.47;13.50;;;;;;;;;;5073360;28;20483;-69
2023/02/11 14:23:26;;;;;;;70.70;14.50;;;;;;;;;;5073507;28;20486;-69
2023/02/11 14:26:02;;;;;;;67.40;13.57;;;;;;;;;;5073588;28;20942;-68
2023/02/11 14:28:32;;;;;;;68.47;13.87;;;;;;;;;;5073260;28;20449;-69
2023/02/11 14:31:03;;;;;;;73.37;15.90;;;;;;;;;;5073364;28;20458;-69
2023/02/11 14:33:49;;;;;;;73.20;14.67;;;;;;;;;;5073365;28;20450;-69
2023/02/11 14:36:42;;;;;;;71.83;15.30;;;;;;;;;;5073536;28;20550;-69
2023/02/11 14:39:14;;;;;;;71.20;16.17;;;;;;;;;;5073171;28;20534;-69
2023/02/11 14:41:44;;;;;;;73.80;16.27;;;;;;;;;;5073104;28;20453;-69